createdAt,value
2018-05-26T00:00:25.314Z,16.00
2018-05-26T00:02:18.695Z,15.60
2018-05-26T00:03:18.537Z,15.70
2018-05-26T00:05:11.842Z,15.80
2018-05-26T00:06:11.762Z,15.90
2018-05-26T00:08:05.039Z,16.80
2018-05-26T00:09:04.979Z,16.80
2018-05-26T00:10:58.388Z,16.60
2018-05-26T00:11:58.276Z,16.40
2018-05-26T00:13:51.590Z,16.20
2018-05-26T00:14:51.504Z,17.10
2018-05-26T00:16:44.787Z,16.30
2018-05-26T00:17:44.730Z,16.40
2018-05-26T00:19:38.137Z,17.80
2018-05-26T00:20:37.953Z,17.00
2018-05-26T00:22:31.343Z,17.50
2018-05-26T00:23:31.185Z,17.20
2018-05-26T00:25:24.486Z,16.30
2018-05-26T00:26:24.409Z,17.20
2018-05-26T00:28:17.695Z,16.90
2018-05-26T00:29:17.635Z,16.80
2018-05-26T00:31:10.938Z,18.60
2018-05-26T00:32:10.860Z,17.40
2018-05-26T00:34:04.164Z,17.50
2018-05-26T00:35:04.092Z,17.60
2018-05-26T00:36:57.393Z,18.20
2018-05-26T00:37:57.313Z,17.80
2018-05-26T00:39:50.620Z,18.40
2018-05-26T00:40:50.537Z,18.10
2018-05-26T00:42:43.821Z,17.70
2018-05-26T00:43:43.765Z,18.40
2018-05-26T00:45:37.093Z,18.40
2018-05-26T00:46:36.988Z,18.00
2018-05-26T00:48:30.331Z,18.50
2018-05-26T00:49:30.273Z,18.20
2018-05-26T00:51:23.577Z,18.70
2018-05-26T00:52:23.500Z,17.80
2018-05-26T00:54:16.803Z,17.80
2018-05-26T00:55:16.723Z,18.20
2018-05-26T00:57:10.009Z,18.70
2018-05-26T00:58:09.950Z,19.00
2018-05-26T01:00:03.300Z,19.10
2018-05-26T01:01:03.175Z,18.20
2018-05-26T01:02:56.460Z,18.60
2018-05-26T01:03:56.400Z,18.90
2018-05-26T01:05:49.703Z,19.30
2018-05-26T01:06:49.628Z,19.00
2018-05-26T01:08:42.910Z,19.20
2018-05-26T01:09:42.851Z,19.00
2018-05-26T01:11:36.153Z,17.80
2018-05-26T01:12:36.075Z,18.30
2018-05-26T01:14:29.481Z,18.70
2018-05-26T01:15:29.302Z,18.40
2018-05-26T01:17:22.685Z,18.50
2018-05-26T01:18:22.529Z,18.30
2018-05-26T01:20:15.940Z,18.30
2018-05-26T01:21:15.753Z,18.80
2018-05-26T01:23:09.040Z,19.20
2018-05-26T01:24:08.980Z,19.40
2018-05-26T01:26:02.352Z,18.30
2018-05-26T01:27:02.274Z,18.20
2018-05-26T01:28:55.557Z,19.30
2018-05-26T01:29:55.499Z,19.10
2018-05-26T01:31:48.803Z,19.30
2018-05-26T01:32:48.727Z,19.10
2018-05-26T01:34:42.026Z,19.80
2018-05-26T01:35:41.949Z,19.00
2018-05-26T01:37:35.236Z,19.90
2018-05-26T01:38:35.177Z,19.70
2018-05-26T01:40:28.478Z,20.10
2018-05-26T01:41:28.398Z,20.70
2018-05-26T01:43:21.682Z,18.80
2018-05-26T01:44:21.625Z,18.50
2018-05-26T01:46:14.925Z,18.70
2018-05-26T01:47:14.850Z,19.20
2018-05-26T01:49:08.130Z,18.90
2018-05-26T01:50:08.071Z,19.30
2018-05-26T01:52:01.373Z,18.90
2018-05-26T01:53:01.294Z,20.00
2018-05-26T01:54:54.596Z,19.50
2018-05-26T01:55:54.518Z,19.50
2018-05-26T01:57:47.796Z,18.60
2018-05-26T01:58:47.738Z,18.60
2018-05-26T02:00:41.138Z,19.80
2018-05-26T02:01:40.956Z,18.90
2018-05-26T02:03:34.332Z,18.50
2018-05-26T02:04:34.279Z,19.00
2018-05-26T02:06:27.574Z,18.60
2018-05-26T02:07:27.496Z,18.40
2018-05-26T02:09:20.883Z,18.00
2018-05-26T02:10:20.720Z,18.30
2018-05-26T02:12:14.018Z,18.80
2018-05-26T02:13:13.942Z,17.80
2018-05-26T02:15:07.242Z,19.10
2018-05-26T02:16:07.161Z,18.50
2018-05-26T02:18:00.445Z,17.70
2018-05-26T02:19:00.384Z,18.20
2018-05-26T02:20:53.789Z,18.40
2018-05-26T02:21:53.607Z,18.10
2018-05-26T02:23:47.491Z,18.60
2018-05-26T02:24:46.828Z,17.90
2018-05-26T02:26:40.130Z,16.40
2018-05-26T02:27:40.050Z,17.70
2018-05-26T02:29:33.331Z,17.40
2018-05-26T02:30:33.272Z,17.70
2018-05-26T02:32:26.574Z,17.30
2018-05-26T02:33:26.502Z,17.40
2018-05-26T02:35:19.897Z,16.80
2018-05-26T02:36:19.718Z,17.40
2018-05-26T02:38:13.043Z,17.30
2018-05-26T02:39:12.928Z,16.50
2018-05-26T02:41:06.231Z,16.40
2018-05-26T02:42:06.148Z,18.00
2018-05-26T02:43:59.430Z,16.60
2018-05-26T02:44:59.369Z,16.30
2018-05-26T02:46:52.672Z,15.90
2018-05-26T02:47:52.591Z,16.10
2018-05-26T02:49:45.975Z,16.40
2018-05-26T02:50:45.811Z,16.30
2018-05-26T02:52:39.116Z,15.60
2018-05-26T02:53:39.035Z,15.80
2018-05-26T02:55:32.356Z,15.90
2018-05-26T02:56:32.274Z,16.60
2018-05-26T02:58:25.552Z,16.30
2018-05-26T02:59:25.530Z,16.20
2018-05-26T03:01:18.792Z,16.30
2018-05-26T03:02:18.714Z,15.50
2018-05-26T03:04:12.008Z,16.20
2018-05-26T03:05:11.936Z,15.80
2018-05-26T03:07:05.236Z,15.60
2018-05-26T03:08:05.161Z,16.00
2018-05-26T03:09:58.543Z,16.20
2018-05-26T03:10:58.397Z,15.60
2018-05-26T03:12:51.699Z,16.00
2018-05-26T03:13:51.615Z,15.80
2018-05-26T03:15:45.019Z,16.40
2018-05-26T03:16:44.838Z,15.80
2018-05-26T03:18:38.221Z,16.10
2018-05-26T03:19:38.062Z,16.00
2018-05-26T03:21:31.363Z,15.90
2018-05-26T03:22:31.284Z,15.90
2018-05-26T03:24:24.666Z,15.60
2018-05-26T03:25:24.503Z,15.00
2018-05-26T03:27:18.412Z,15.60
2018-05-26T03:28:17.716Z,15.60
2018-05-26T03:30:11.101Z,16.00
2018-05-26T03:31:10.942Z,14.90
2018-05-26T03:33:04.350Z,14.70
2018-05-26T03:34:04.159Z,16.40
2018-05-26T03:35:57.466Z,15.50
2018-05-26T03:36:57.387Z,14.90
2018-05-26T03:38:50.669Z,15.30
2018-05-26T03:39:50.607Z,15.90
2018-05-26T03:41:43.908Z,14.60
2018-05-26T03:42:43.828Z,15.30
2018-05-26T03:44:37.117Z,14.70
2018-05-26T03:45:37.058Z,14.70
2018-05-26T03:47:30.360Z,14.60
2018-05-26T03:48:30.281Z,15.10
2018-05-26T03:50:23.562Z,15.00
2018-05-26T03:51:23.503Z,15.40
2018-05-26T03:53:16.805Z,15.40
2018-05-26T03:54:16.723Z,15.00
2018-05-26T03:56:10.027Z,15.50
2018-05-26T03:57:09.946Z,15.40
2018-05-26T03:59:03.226Z,15.30
2018-05-26T04:00:03.170Z,16.40
2018-05-26T04:01:56.573Z,15.20
2018-05-26T04:02:56.392Z,15.00
2018-05-26T04:04:49.673Z,14.50
2018-05-26T04:05:49.631Z,15.20
2018-05-26T04:07:42.910Z,15.20
2018-05-26T04:08:42.825Z,15.10
2018-05-26T04:10:36.212Z,15.00
2018-05-26T04:11:36.050Z,15.00
2018-05-26T04:13:29.459Z,14.60
2018-05-26T04:14:29.274Z,14.50
2018-05-26T04:16:22.576Z,14.50
2018-05-26T04:17:22.498Z,14.50
2018-05-26T04:19:15.783Z,14.30
2018-05-26T04:20:15.721Z,14.20
2018-05-26T04:22:09.022Z,14.40
2018-05-26T04:23:08.945Z,13.90
2018-05-26T04:25:02.227Z,14.60
2018-05-26T04:26:02.169Z,14.70
2018-05-26T04:27:55.467Z,13.30
2018-05-26T04:28:55.384Z,14.50
2018-05-26T04:30:48.667Z,14.30
2018-05-26T04:31:48.606Z,14.50
2018-05-26T04:33:42.012Z,13.80
2018-05-26T04:34:41.830Z,13.80
2018-05-26T04:36:35.134Z,14.30
2018-05-26T04:37:35.054Z,14.30
2018-05-26T04:39:28.336Z,13.90
2018-05-26T04:40:28.278Z,13.90
2018-05-26T04:42:21.589Z,14.00
2018-05-26T04:43:21.503Z,13.50
2018-05-26T04:45:14.888Z,13.10
2018-05-26T04:46:14.726Z,14.20
2018-05-26T04:48:08.021Z,14.60
2018-05-26T04:49:07.943Z,13.60
2018-05-26T04:51:01.229Z,14.00
2018-05-26T04:52:01.167Z,13.60
2018-05-26T04:53:54.471Z,14.30
2018-05-26T04:54:54.392Z,14.80
2018-05-26T04:56:47.691Z,14.00
2018-05-26T04:57:47.619Z,13.60
2018-05-26T04:59:40.903Z,14.60
2018-05-26T05:00:40.845Z,14.90
2018-05-26T05:02:34.147Z,14.60
2018-05-26T05:03:34.069Z,14.90
2018-05-26T05:05:27.352Z,13.70
2018-05-26T05:06:27.296Z,14.10
2018-05-26T05:08:20.699Z,14.50
2018-05-26T05:09:20.520Z,15.50
2018-05-26T05:11:13.804Z,15.20
2018-05-26T05:12:13.745Z,15.10
2018-05-26T05:14:07.048Z,14.80
2018-05-26T05:15:06.969Z,16.10
2018-05-26T05:17:00.359Z,15.30
2018-05-26T05:18:00.275Z,15.50
2018-05-26T05:19:53.547Z,15.90
2018-05-26T05:20:53.490Z,16.30
2018-05-26T05:22:46.827Z,15.20
2018-05-26T05:23:46.707Z,15.20
2018-05-26T05:25:39.980Z,14.30
2018-05-26T05:26:39.930Z,14.90
2018-05-26T05:28:33.219Z,15.40
2018-05-26T05:29:33.139Z,14.70
2018-05-26T05:31:26.415Z,14.60
2018-05-26T05:32:26.375Z,14.80
2018-05-26T05:34:19.686Z,14.80
2018-05-26T05:35:19.613Z,14.30
2018-05-26T05:37:23.953Z,15.20
2018-05-26T05:38:23.876Z,15.90
2018-05-26T05:40:17.264Z,15.30
2018-05-26T05:41:17.096Z,14.10
2018-05-26T05:43:10.498Z,14.90
2018-05-26T05:44:10.315Z,15.20
2018-05-26T05:46:03.598Z,14.60
2018-05-26T05:47:03.542Z,14.80
2018-05-26T05:48:56.834Z,15.50
2018-05-26T05:49:56.756Z,15.50
2018-05-26T05:51:50.034Z,15.30
2018-05-26T05:52:49.975Z,15.60
2018-05-26T05:54:43.337Z,15.30
2018-05-26T05:55:43.190Z,15.40
2018-05-26T05:57:36.491Z,16.00
2018-05-26T05:58:36.411Z,15.20
2018-05-26T06:00:29.685Z,15.80
2018-05-26T06:01:29.633Z,15.70
2018-05-26T06:03:22.933Z,15.90
2018-05-26T06:04:22.861Z,16.10
2018-05-26T06:06:16.154Z,17.30
2018-05-26T06:07:16.085Z,16.20
2018-05-26T06:09:09.373Z,16.40
2018-05-26T06:10:09.293Z,16.00
2018-05-26T06:12:02.569Z,16.40
2018-05-26T06:13:02.511Z,16.20
2018-05-26T06:14:55.975Z,16.00
2018-05-26T06:15:55.729Z,16.40
2018-05-26T06:17:49.030Z,16.10
2018-05-26T06:18:48.952Z,16.00
2018-05-26T06:20:42.336Z,16.30
2018-05-26T06:21:42.279Z,16.40
2018-05-26T06:23:35.575Z,16.60
2018-05-26T06:24:35.500Z,15.40
2018-05-26T06:26:28.782Z,16.60
2018-05-26T06:27:28.720Z,15.60
2018-05-26T06:29:22.020Z,15.20
2018-05-26T06:30:21.945Z,15.10
2018-05-26T06:32:15.223Z,16.00
2018-05-26T06:33:15.168Z,16.00
2018-05-26T06:35:08.484Z,15.70
2018-05-26T06:36:08.405Z,16.00
2018-05-26T06:38:01.705Z,15.90
2018-05-26T06:39:01.634Z,16.00
2018-05-26T06:40:54.925Z,16.00
2018-05-26T06:41:54.896Z,15.90
2018-05-26T06:43:48.174Z,15.50
2018-05-26T06:44:48.100Z,16.20
2018-05-26T06:46:41.383Z,15.60
2018-05-26T06:47:41.332Z,15.40
2018-05-26T06:49:34.630Z,15.70
2018-05-26T06:50:34.560Z,16.30
2018-05-26T06:52:27.843Z,14.90
2018-05-26T06:53:27.789Z,14.40
2018-05-26T06:55:21.093Z,15.60
2018-05-26T06:56:21.021Z,15.10
2018-05-26T06:58:14.357Z,14.80
2018-05-26T06:59:14.284Z,14.80
2018-05-26T07:01:07.568Z,15.10
2018-05-26T07:02:07.515Z,15.30
2018-05-26T07:04:00.822Z,15.10
2018-05-26T07:05:00.746Z,15.40
2018-05-26T07:06:54.033Z,15.00
2018-05-26T07:07:53.978Z,14.70
2018-05-26T07:09:47.897Z,14.40
2018-05-26T07:10:47.215Z,14.00
2018-05-26T07:12:40.500Z,13.90
2018-05-26T07:13:40.445Z,14.00
2018-05-26T07:15:33.752Z,14.60
2018-05-26T07:16:33.687Z,14.30
2018-05-26T07:18:26.990Z,13.90
2018-05-26T07:19:26.914Z,14.50
2018-05-26T07:21:20.203Z,14.70
2018-05-26T07:22:20.150Z,14.80
2018-05-26T07:24:13.566Z,14.30
2018-05-26T07:25:12.900Z,13.90
2018-05-26T07:27:06.180Z,14.90
2018-05-26T07:28:06.128Z,15.00
2018-05-26T07:29:59.542Z,15.10
2018-05-26T07:30:59.364Z,14.40
2018-05-26T07:32:52.653Z,14.70
2018-05-26T07:33:52.603Z,14.40
2018-05-26T07:35:45.905Z,14.80
2018-05-26T07:36:45.828Z,14.20
2018-05-26T07:38:38.652Z,14.10
2018-05-26T07:39:38.581Z,14.30
2018-05-26T07:41:31.484Z,14.60
2018-05-26T07:42:31.331Z,14.10
2018-05-26T07:44:24.631Z,14.60
2018-05-26T07:45:24.563Z,14.60
2018-05-26T07:47:17.910Z,15.00
2018-05-26T07:48:17.799Z,14.70
2018-05-26T07:50:11.110Z,14.30
2018-05-26T07:51:11.039Z,14.10
2018-05-26T07:53:04.354Z,14.10
2018-05-26T07:54:04.288Z,13.40
2018-05-26T07:55:57.597Z,13.20
2018-05-26T07:56:57.523Z,12.70
2018-05-26T07:58:50.932Z,13.80
2018-05-26T07:59:50.766Z,13.00
2018-05-26T08:01:44.057Z,12.50
2018-05-26T08:02:44.004Z,12.90
2018-05-26T08:04:37.313Z,13.50
2018-05-26T08:05:37.244Z,13.50
2018-05-26T08:07:30.536Z,12.70
2018-05-26T08:08:30.486Z,12.40
2018-05-26T08:10:23.903Z,12.90
2018-05-26T08:11:23.727Z,14.30
2018-05-26T08:13:17.016Z,13.50
2018-05-26T08:14:16.964Z,13.70
2018-05-26T08:16:10.355Z,13.40
2018-05-26T08:17:10.318Z,12.60
2018-05-26T08:19:03.603Z,11.30
2018-05-26T08:20:03.533Z,10.60
2018-05-26T08:21:56.930Z,11.60
2018-05-26T08:22:56.771Z,12.40
2018-05-26T08:24:50.081Z,12.10
2018-05-26T08:25:50.011Z,11.60
2018-05-26T08:27:43.302Z,11.50
2018-05-26T08:28:43.254Z,11.30
2018-05-26T08:30:36.663Z,11.80
2018-05-26T08:31:36.509Z,12.20
2018-05-26T08:33:29.795Z,12.00
2018-05-26T08:34:29.743Z,13.10
2018-05-26T08:36:23.052Z,12.70
2018-05-26T08:37:22.981Z,12.00
2018-05-26T08:39:16.361Z,12.70
2018-05-26T08:40:16.293Z,12.60
2018-05-26T08:42:09.578Z,13.20
2018-05-26T08:43:09.527Z,13.40
2018-05-26T08:45:02.842Z,12.40
2018-05-26T08:46:02.765Z,12.80
2018-05-26T08:47:56.054Z,11.70
2018-05-26T08:48:56.004Z,12.90
2018-05-26T08:50:49.421Z,14.00
2018-05-26T08:51:49.243Z,13.20
2018-05-26T08:53:42.543Z,12.70
2018-05-26T08:54:42.486Z,13.10
2018-05-26T08:56:35.788Z,12.40
2018-05-26T08:57:35.715Z,11.40
2018-05-26T08:59:29.132Z,12.80
2018-05-26T09:00:28.965Z,12.80
2018-05-26T09:02:22.429Z,13.10
2018-05-26T09:03:22.289Z,13.40
2018-05-26T09:05:15.614Z,12.60
2018-05-26T09:06:15.538Z,11.60
2018-05-26T09:08:08.830Z,11.70
2018-05-26T09:09:08.779Z,11.80
2018-05-26T09:11:02.100Z,10.70
2018-05-26T09:12:02.033Z,11.30
2018-05-26T09:13:55.321Z,10.70
2018-05-26T09:14:55.308Z,10.70
2018-05-26T09:16:48.579Z,10.20
2018-05-26T09:17:48.559Z,9.50
2018-05-26T09:19:41.818Z,11.20
2018-05-26T09:20:41.752Z,11.00
2018-05-26T09:22:35.040Z,11.20
2018-05-26T09:23:34.988Z,11.40
2018-05-26T09:25:28.433Z,11.10
2018-05-26T09:26:28.304Z,10.80
2018-05-26T09:28:21.584Z,11.20
2018-05-26T09:29:21.532Z,10.20
2018-05-26T09:31:14.851Z,11.40
2018-05-26T09:32:14.775Z,10.60
2018-05-26T09:34:08.064Z,9.40
2018-05-26T09:35:08.014Z,9.90
2018-05-26T09:37:01.335Z,9.40
2018-05-26T09:38:01.265Z,8.90
2018-05-26T09:39:54.578Z,9.50
2018-05-26T09:40:54.507Z,8.10
2018-05-26T09:42:47.799Z,8.00
2018-05-26T09:43:47.805Z,7.90
2018-05-26T09:45:41.062Z,8.00
2018-05-26T09:46:40.992Z,8.60
2018-05-26T09:48:34.342Z,7.50
2018-05-26T09:49:34.292Z,7.50
2018-05-26T09:51:27.602Z,8.00
2018-05-26T09:52:27.533Z,7.50
2018-05-26T09:54:20.936Z,8.20
2018-05-26T09:55:20.777Z,8.60
2018-05-26T09:57:14.089Z,8.30
2018-05-26T09:58:14.022Z,8.70
2018-05-26T10:00:07.333Z,8.40
2018-05-26T10:01:07.267Z,8.50
2018-05-26T10:03:00.667Z,8.20
2018-05-26T10:04:00.508Z,8.30
2018-05-26T10:05:53.928Z,7.80
2018-05-26T10:06:53.752Z,7.20
2018-05-26T10:08:47.150Z,6.20
2018-05-26T10:09:46.994Z,6.20
2018-05-26T10:11:40.364Z,6.90
2018-05-26T10:12:40.295Z,6.70
2018-05-26T10:14:33.607Z,6.90
2018-05-26T10:15:33.539Z,7.20
2018-05-26T10:17:26.852Z,6.50
2018-05-26T10:18:26.785Z,5.90
2018-05-26T10:20:20.204Z,6.70
2018-05-26T10:21:20.027Z,6.40
2018-05-26T10:23:13.322Z,5.50
2018-05-26T10:24:13.277Z,5.20
2018-05-26T10:26:06.587Z,5.70
2018-05-26T10:27:06.520Z,6.00
2018-05-26T10:28:59.916Z,6.40
2018-05-26T10:29:59.803Z,5.80
2018-05-26T10:31:53.117Z,5.50
2018-05-26T10:32:53.042Z,4.60
2018-05-26T10:34:46.373Z,5.00
2018-05-26T10:35:46.297Z,5.00
2018-05-26T10:37:39.593Z,5.50
2018-05-26T10:38:39.562Z,5.50
2018-05-26T10:40:32.867Z,5.40
2018-05-26T10:41:32.805Z,5.50
2018-05-26T10:43:26.090Z,5.60
2018-05-26T10:44:26.097Z,5.60
2018-05-26T10:46:18.883Z,4.50
2018-05-26T10:47:18.814Z,4.70
2018-05-26T10:49:12.210Z,5.10
2018-05-26T10:50:12.056Z,4.80
2018-05-26T10:52:05.473Z,4.90
2018-05-26T10:53:05.300Z,5.20
2018-05-26T10:54:58.722Z,5.80
2018-05-26T10:55:58.595Z,5.10
2018-05-26T10:57:51.839Z,4.70
2018-05-26T10:58:51.790Z,4.40
2018-05-26T11:00:45.105Z,4.90
2018-05-26T11:01:45.038Z,4.70
2018-05-26T11:03:38.341Z,4.50
2018-05-26T11:04:38.293Z,4.60
2018-05-26T11:06:31.607Z,4.70
2018-05-26T11:07:31.539Z,4.90
2018-05-26T11:09:24.831Z,4.70
2018-05-26T11:10:24.785Z,4.10
2018-05-26T11:12:18.201Z,4.50
2018-05-26T11:13:18.040Z,4.50
2018-05-26T11:15:11.529Z,4.80
2018-05-26T11:16:11.449Z,4.70
2018-05-26T11:18:04.694Z,4.60
2018-05-26T11:19:04.556Z,4.60
2018-05-26T11:20:57.863Z,4.70
2018-05-26T11:21:57.799Z,4.30
2018-05-26T11:23:51.195Z,4.10
2018-05-26T11:24:51.101Z,4.00
2018-05-26T11:26:44.373Z,4.60
2018-05-26T11:27:44.307Z,4.50
2018-05-26T11:29:37.648Z,4.90
2018-05-26T11:30:37.561Z,5.10
2018-05-26T11:32:30.888Z,4.70
2018-05-26T11:33:30.819Z,4.90
2018-05-26T11:35:24.146Z,4.90
2018-05-26T11:36:24.080Z,4.60
2018-05-26T11:38:17.381Z,4.40
2018-05-26T11:39:17.343Z,4.30
2018-05-26T11:41:10.658Z,4.90
2018-05-26T11:42:10.587Z,4.50
2018-05-26T11:44:03.889Z,4.50
2018-05-26T11:45:03.835Z,4.10
2018-05-26T11:46:57.159Z,4.20
2018-05-26T11:47:57.088Z,4.20
2018-05-26T11:49:50.388Z,4.20
2018-05-26T11:50:50.340Z,4.40
2018-05-26T11:52:43.648Z,4.80
2018-05-26T11:53:43.576Z,4.80
2018-05-26T11:55:36.884Z,4.60
2018-05-26T11:56:36.816Z,4.40
2018-05-26T11:58:30.106Z,5.00
2018-05-26T11:59:30.070Z,5.20
2018-05-26T12:01:23.392Z,4.90
2018-05-26T12:02:23.320Z,4.70
2018-05-26T12:04:16.606Z,5.50
2018-05-26T12:05:16.564Z,5.10
2018-05-26T12:07:09.863Z,5.00
2018-05-26T12:08:09.791Z,5.10
2018-05-26T12:10:03.084Z,5.50
2018-05-26T12:11:03.032Z,5.60
2018-05-26T12:12:56.378Z,5.60
2018-05-26T12:13:56.304Z,6.10
2018-05-26T12:15:49.719Z,4.70
2018-05-26T12:16:49.540Z,5.00
2018-05-26T12:18:42.834Z,5.70
2018-05-26T12:19:42.775Z,5.20
2018-05-26T12:21:36.080Z,5.20
2018-05-26T12:22:36.011Z,5.20
2018-05-26T12:24:29.298Z,5.10
2018-05-26T12:25:29.254Z,5.30
2018-05-26T12:27:22.558Z,5.10
2018-05-26T12:28:22.484Z,5.40
2018-05-26T12:30:15.779Z,5.40
2018-05-26T12:31:15.728Z,5.80
2018-05-26T12:33:09.035Z,5.70
2018-05-26T12:34:08.962Z,5.50
2018-05-26T12:36:02.405Z,5.20
2018-05-26T12:37:02.287Z,5.20
2018-05-26T12:38:55.683Z,5.80
2018-05-26T12:39:55.524Z,6.10
2018-05-26T12:41:48.831Z,5.90
2018-05-26T12:42:48.765Z,6.30
2018-05-26T12:44:42.155Z,6.40
2018-05-26T12:45:42.019Z,6.40
2018-05-26T12:47:35.323Z,6.20
2018-05-26T12:48:35.251Z,6.10
2018-05-26T12:50:28.540Z,6.70
2018-05-26T12:51:28.488Z,6.30
2018-05-26T12:53:21.794Z,6.60
2018-05-26T12:54:21.724Z,6.40
2018-05-26T12:56:15.031Z,6.00
2018-05-26T12:57:14.961Z,6.40
2018-05-26T12:59:08.340Z,6.40
2018-05-26T13:00:08.288Z,6.10
2018-05-26T13:02:01.598Z,6.10
2018-05-26T13:03:01.527Z,6.20
2018-05-26T13:04:54.926Z,6.00
2018-05-26T13:05:54.762Z,6.20
2018-05-26T13:07:48.088Z,5.80
2018-05-26T13:08:48.006Z,6.30
2018-05-26T13:10:41.399Z,5.40
2018-05-26T13:11:41.261Z,5.60
2018-05-26T13:13:34.579Z,5.60
2018-05-26T13:14:34.510Z,5.40
2018-05-26T13:16:27.354Z,6.00
2018-05-26T13:17:27.277Z,5.80
2018-05-26T13:19:20.575Z,5.30
2018-05-26T13:20:20.529Z,5.40
2018-05-26T13:22:13.863Z,5.70
2018-05-26T13:23:13.791Z,5.60
2018-05-26T13:25:07.094Z,5.40
2018-05-26T13:26:07.040Z,5.90
2018-05-26T13:28:00.371Z,5.40
2018-05-26T13:29:00.293Z,5.80
2018-05-26T13:30:53.592Z,5.50
2018-05-26T13:31:53.541Z,5.20
2018-05-26T13:33:46.956Z,5.80
2018-05-26T13:34:46.780Z,5.30
2018-05-26T13:36:40.108Z,5.50
2018-05-26T13:37:40.034Z,5.30
2018-05-26T13:39:33.323Z,5.20
2018-05-26T13:40:33.269Z,5.20
2018-05-26T13:42:26.584Z,5.10
2018-05-26T13:43:26.514Z,5.20
2018-05-26T13:45:19.909Z,5.30
2018-05-26T13:46:19.754Z,5.40
2018-05-26T13:48:13.063Z,5.10
2018-05-26T13:49:12.998Z,5.00
2018-05-26T13:51:06.388Z,5.20
2018-05-26T13:52:06.326Z,5.00
2018-05-26T13:53:59.660Z,5.20
2018-05-26T13:54:59.607Z,5.00
2018-05-26T13:56:52.834Z,5.10
2018-05-26T13:57:52.780Z,5.30
2018-05-26T13:59:46.194Z,5.10
2018-05-26T14:00:46.027Z,4.90
2018-05-26T14:02:39.333Z,4.90
2018-05-26T14:03:39.264Z,5.10
2018-05-26T14:05:32.550Z,4.80
2018-05-26T14:06:32.501Z,4.60
2018-05-26T14:08:25.808Z,4.90
2018-05-26T14:09:25.735Z,5.00
2018-05-26T14:11:19.023Z,4.70
2018-05-26T14:12:18.973Z,4.80
2018-05-26T14:14:12.358Z,4.60
2018-05-26T14:15:12.286Z,4.50
2018-05-26T14:17:05.585Z,4.70
2018-05-26T14:18:05.535Z,4.50
2018-05-26T14:19:58.950Z,4.80
2018-05-26T14:20:58.771Z,4.80
2018-05-26T14:22:52.081Z,5.00
2018-05-26T14:23:52.009Z,4.30
2018-05-26T14:25:45.405Z,5.10
2018-05-26T14:26:45.245Z,4.70
2018-05-26T14:28:38.554Z,4.80
2018-05-26T14:29:38.483Z,4.40
2018-05-26T14:31:31.772Z,4.70
2018-05-26T14:32:31.719Z,4.80
2018-05-26T14:34:25.032Z,4.80
2018-05-26T14:35:24.960Z,4.70
2018-05-26T14:37:18.358Z,4.70
2018-05-26T14:38:18.199Z,4.40
2018-05-26T14:40:11.509Z,4.40
2018-05-26T14:41:11.438Z,4.50
2018-05-26T14:43:04.764Z,4.70
2018-05-26T14:44:04.701Z,4.90
2018-05-26T14:45:57.978Z,4.70
2018-05-26T14:46:57.926Z,4.60
2018-05-26T14:48:51.236Z,4.50
2018-05-26T14:49:51.173Z,5.00
2018-05-26T14:51:44.453Z,4.60
2018-05-26T14:52:44.403Z,4.60
2018-05-26T14:54:37.816Z,4.80
2018-05-26T14:55:37.638Z,4.70
2018-05-26T14:57:30.939Z,4.90
2018-05-26T14:58:30.889Z,4.80
2018-05-26T15:00:24.196Z,4.60
2018-05-26T15:01:24.131Z,4.60
2018-05-26T15:03:17.434Z,5.00
2018-05-26T15:04:17.365Z,4.40
2018-05-26T15:06:10.654Z,4.60
2018-05-26T15:07:10.601Z,4.60
2018-05-26T15:09:03.909Z,4.50
2018-05-26T15:10:03.845Z,4.40
2018-05-26T15:11:57.127Z,4.50
2018-05-26T15:12:57.278Z,4.50
2018-05-26T15:14:50.386Z,4.80
2018-05-26T15:15:50.317Z,5.00
2018-05-26T15:17:43.710Z,4.80
2018-05-26T15:18:43.558Z,4.70
2018-05-26T15:20:36.866Z,4.50
2018-05-26T15:21:36.794Z,4.70
2018-05-26T15:23:30.113Z,4.80
2018-05-26T15:24:30.040Z,4.40
2018-05-26T15:26:23.327Z,4.80
2018-05-26T15:27:23.279Z,4.60
2018-05-26T15:29:16.589Z,4.50
2018-05-26T15:30:16.524Z,4.80
2018-05-26T15:32:09.807Z,4.50
2018-05-26T15:33:09.757Z,4.50
2018-05-26T15:35:03.083Z,4.70
2018-05-26T15:36:03.011Z,4.60
2018-05-26T15:37:56.345Z,4.40
2018-05-26T15:38:56.291Z,5.20
2018-05-26T15:40:49.709Z,4.60
2018-05-26T15:41:49.530Z,4.90
2018-05-26T15:43:42.834Z,5.20
2018-05-26T15:44:42.764Z,4.80
2018-05-26T15:46:36.054Z,4.90
2018-05-26T15:47:36.001Z,4.90
2018-05-26T15:49:29.477Z,4.90
2018-05-26T15:50:29.409Z,4.80
2018-05-26T15:52:22.711Z,5.00
2018-05-26T15:53:22.655Z,5.00
2018-05-26T15:55:15.986Z,5.20
2018-05-26T15:56:15.882Z,5.10
2018-05-26T15:58:09.174Z,4.90
2018-05-26T15:59:09.120Z,4.60
2018-05-26T16:01:02.430Z,4.90
2018-05-26T16:02:02.363Z,4.80
2018-05-26T16:03:55.678Z,4.90
2018-05-26T16:04:55.605Z,4.90
2018-05-26T16:06:48.902Z,5.60
2018-05-26T16:07:48.845Z,5.10
2018-05-26T16:09:42.267Z,5.80
2018-05-26T16:10:42.098Z,5.20
2018-05-26T16:12:35.468Z,5.60
2018-05-26T16:13:35.413Z,6.20
2018-05-26T16:15:28.739Z,5.10
2018-05-26T16:16:28.658Z,5.40
2018-05-26T16:18:21.958Z,4.70
2018-05-26T16:19:21.908Z,4.80
2018-05-26T16:21:15.229Z,6.00
2018-05-26T16:22:15.159Z,5.70
2018-05-26T16:24:08.474Z,4.90
2018-05-26T16:25:08.405Z,4.70
2018-05-26T16:27:01.705Z,5.10
2018-05-26T16:28:01.652Z,5.00
2018-05-26T16:29:54.969Z,4.90
2018-05-26T16:30:54.896Z,5.00
2018-05-26T16:32:48.194Z,5.40
2018-05-26T16:33:48.143Z,5.20
2018-05-26T16:35:41.556Z,5.20
2018-05-26T16:36:41.414Z,5.50
2018-05-26T16:38:34.710Z,5.30
2018-05-26T16:39:34.657Z,5.10
2018-05-26T16:41:27.974Z,5.10
2018-05-26T16:42:27.903Z,4.80
2018-05-26T16:44:21.220Z,5.30
2018-05-26T16:45:21.184Z,5.10
2018-05-26T16:47:14.453Z,5.20
2018-05-26T16:48:14.396Z,5.70
2018-05-26T16:50:08.713Z,5.30
2018-05-26T16:51:08.641Z,5.10
2018-05-26T16:53:01.941Z,5.50
2018-05-26T16:54:01.891Z,5.20
2018-05-26T16:55:55.206Z,5.60
2018-05-26T16:56:55.134Z,5.20
2018-05-26T16:58:48.464Z,4.80
2018-05-26T16:59:48.391Z,5.00
2018-05-26T17:01:41.695Z,5.70
2018-05-26T17:02:41.627Z,5.50
2018-05-26T17:04:34.941Z,5.10
2018-05-26T17:05:34.873Z,5.00
2018-05-26T17:07:28.162Z,5.60
2018-05-26T17:08:28.105Z,5.40
2018-05-26T17:10:21.421Z,5.60
2018-05-26T17:11:21.349Z,5.30
2018-05-26T17:13:14.653Z,4.90
2018-05-26T17:14:14.595Z,4.90
2018-05-26T17:16:07.917Z,5.20
2018-05-26T17:17:07.842Z,5.40
2018-05-26T17:19:01.139Z,5.60
2018-05-26T17:20:01.086Z,5.90
2018-05-26T17:21:54.404Z,5.50
2018-05-26T17:22:54.329Z,5.40
2018-05-26T17:24:47.646Z,5.40
2018-05-26T17:25:47.575Z,5.90
2018-05-26T17:27:40.874Z,5.20
2018-05-26T17:28:40.822Z,6.10
2018-05-26T17:30:34.143Z,5.00
2018-05-26T17:31:34.066Z,5.60
2018-05-26T17:33:27.480Z,5.80
2018-05-26T17:34:27.414Z,5.60
2018-05-26T17:36:20.830Z,5.40
2018-05-26T17:37:20.674Z,5.20
2018-05-26T17:39:13.962Z,5.60
2018-05-26T17:40:13.911Z,5.60
2018-05-26T17:42:07.248Z,5.40
2018-05-26T17:43:07.153Z,5.10
2018-05-26T17:45:00.469Z,5.50
2018-05-26T17:46:00.397Z,5.80
2018-05-26T17:47:53.685Z,5.60
2018-05-26T17:48:53.634Z,5.30
2018-05-26T17:50:46.954Z,5.60
2018-05-26T17:51:46.876Z,5.20
2018-05-26T17:53:40.172Z,5.00
2018-05-26T17:54:40.124Z,5.10
2018-05-26T17:56:33.484Z,5.80
2018-05-26T17:57:33.414Z,6.80
2018-05-26T17:59:26.708Z,5.10
2018-05-26T18:00:26.654Z,5.20
2018-05-26T18:02:19.970Z,5.70
2018-05-26T18:03:19.896Z,5.50
2018-05-26T18:05:13.213Z,5.10
2018-05-26T18:06:13.141Z,5.50
2018-05-26T18:08:06.427Z,4.90
2018-05-26T18:09:06.375Z,4.90
2018-05-26T18:10:59.710Z,5.80
2018-05-26T18:11:59.637Z,6.00
2018-05-26T18:13:52.931Z,5.50
2018-05-26T18:14:52.878Z,5.40
2018-05-26T18:16:46.194Z,5.80
2018-05-26T18:17:46.122Z,5.20
2018-05-26T18:19:39.465Z,5.20
2018-05-26T18:20:39.414Z,5.40
2018-05-26T18:22:32.727Z,5.30
2018-05-26T18:23:32.653Z,5.70
2018-05-26T18:25:25.968Z,5.60
2018-05-26T18:26:25.896Z,5.50
2018-05-26T18:28:19.190Z,5.40
2018-05-26T18:29:19.137Z,5.00
2018-05-26T18:31:12.461Z,5.40
2018-05-26T18:32:12.381Z,5.60
2018-05-26T18:34:05.674Z,5.30
2018-05-26T18:35:05.621Z,5.20
2018-05-26T18:36:58.938Z,5.90
2018-05-26T18:37:58.861Z,5.90
2018-05-26T18:39:52.158Z,5.80
2018-05-26T18:40:52.101Z,5.30
2018-05-26T18:42:45.481Z,5.40
2018-05-26T18:43:45.408Z,5.50
2018-05-26T18:45:38.720Z,5.60
2018-05-26T18:46:38.648Z,5.30
2018-05-26T18:48:31.974Z,5.30
2018-05-26T18:49:31.926Z,5.40
2018-05-26T18:51:25.240Z,6.00
2018-05-26T18:52:25.167Z,5.60
2018-05-26T18:54:18.460Z,5.30